Time;durP1;ratioP1;P1;durP2;ratioP2;P2;SDS_P1;SDS_P2;PMS_P1;PMS_P2;Temp;Humidity;BMP_temperature;BMP_pressure;BME280_temperature;BME280_humidity;BME280_pressure;Samples;Min_cycle;Max_cycle;Signal;HPM_P1;HPM_P2
2022/03/11 00:00:40;;;;;;;8.30;6.23;;;19.20;34.50;;;;;;5054312;28;20443;-84
2022/03/11 00:03:10;;;;;;;10.47;6.60;;;19.10;34.40;;;;;;5053560;28;20486;-85
2022/03/11 00:05:40;;;;;;;7.63;5.83;;;19.10;34.50;;;;;;5058993;28;20451;-85
2022/03/11 00:08:08;;;;;;;8.03;6.23;;;19.00;34.50;;;;;;5055244;28;20432;-84
2022/03/11 00:10:36;;;;;;;9.07;6.00;;;19.00;34.60;;;;;;5051828;28;20427;-84
2022/03/11 00:13:04;;;;;;;9.40;5.60;;;18.90;34.60;;;;;;5053036;28;20447;-84
2022/03/11 00:15:32;;;;;;;7.43;5.67;;;18.90;34.60;;;;;;5052522;28;20432;-84
2022/03/11 00:18:00;;;;;;;6.90;5.80;;;18.90;34.70;;;;;;5051759;28;20435;-85
2022/03/11 00:20:28;;;;;;;7.50;6.20;;;18.80;34.60;;;;;;5054114;28;20446;-83
2022/03/11 00:22:57;;;;;;;9.50;6.63;;;18.80;34.70;;;;;;5060581;28;20470;-84
2022/03/11 00:25:25;;;;;;;7.87;6.40;;;18.80;34.80;;;;;;5051189;28;20478;-84
2022/03/11 00:27:53;;;;;;;10.03;6.60;;;18.80;34.80;;;;;;5052329;28;20422;-84
2022/03/11 00:30:21;;;;;;;9.70;6.60;;;18.70;34.80;;;;;;5053417;28;20447;-84
2022/03/11 00:32:49;;;;;;;10.20;6.67;;;18.70;34.80;;;;;;5053566;28;20480;-85
2022/03/11 00:35:17;;;;;;;8.37;6.30;;;18.70;34.80;;;;;;5052711;28;20470;-83
2022/03/11 00:37:44;;;;;;;8.57;7.03;;;18.70;34.90;;;;;;5054287;28;20524;-84
2022/03/11 00:40:14;;;;;;;8.47;6.30;;;18.60;34.90;;;;;;5061091;28;20446;-84
2022/03/11 00:42:42;;;;;;;8.93;6.50;;;18.60;34.90;;;;;;5062016;28;20516;-84
2022/03/11 00:45:10;;;;;;;8.40;6.33;;;18.60;35.00;;;;;;5062016;28;20902;-84
2022/03/11 00:47:38;;;;;;;9.40;7.10;;;18.60;35.00;;;;;;5062255;28;20471;-84
2022/03/11 00:50:07;;;;;;;11.33;7.37;;;18.50;34.90;;;;;;5062727;28;20442;-84
2022/03/11 00:52:35;;;;;;;9.37;6.67;;;18.50;35.20;;;;;;5061928;28;20458;-84
2022/03/11 00:55:03;;;;;;;7.53;6.67;;;18.50;35.20;;;;;;5062434;28;20422;-83
2022/03/11 00:57:33;;;;;;;10.53;7.13;;;18.40;35.20;;;;;;5062537;28;20438;-84
2022/03/11 01:00:00;;;;;;;8.23;6.80;;;18.40;35.20;;;;;;5061966;28;20454;-84
2022/03/11 01:02:33;;;;;;;8.50;6.90;;;18.30;35.20;;;;;;5061102;28;20462;-84
2022/03/11 01:05:01;;;;;;;9.03;6.33;;;18.30;35.20;;;;;;5061158;28;20474;-84
2022/03/11 01:07:29;;;;;;;7.20;6.10;;;18.30;35.30;;;;;;5061989;28;20438;-84
2022/03/11 01:09:57;;;;;;;7.97;6.53;;;18.30;35.30;;;;;;5060671;28;20473;-84
2022/03/11 01:12:25;;;;;;;8.20;7.07;;;18.20;35.30;;;;;;5061304;28;20435;-84
2022/03/11 01:14:54;;;;;;;10.03;6.97;;;18.20;35.40;;;;;;5055107;28;20430;-85
2022/03/11 01:17:22;;;;;;;9.00;6.60;;;18.20;35.50;;;;;;5053415;28;20446;-85
2022/03/11 01:19:50;;;;;;;8.53;5.90;;;18.20;35.40;;;;;;5053491;28;20526;-85
2022/03/11 01:22:18;;;;;;;8.77;6.50;;;18.20;35.60;;;;;;5053607;28;20430;-85
2022/03/11 01:24:46;;;;;;;7.80;6.33;;;18.20;35.50;;;;;;5052264;28;20498;-84
2022/03/11 01:27:14;;;;;;;7.90;6.37;;;18.00;35.30;;;;;;5053447;28;20476;-84
2022/03/11 01:29:42;;;;;;;10.50;7.20;;;18.10;35.50;;;;;;5054166;28;20465;-83
2022/03/11 01:32:11;;;;;;;8.20;6.87;;;18.10;35.60;;;;;;5053543;28;20431;-83
2022/03/11 01:34:39;;;;;;;8.10;6.50;;;18.00;35.50;;;;;;5054089;28;20458;-84
2022/03/11 01:37:07;;;;;;;10.87;6.70;;;18.00;35.50;;;;;;5055358;28;20580;-84
2022/03/11 01:39:35;;;;;;;10.43;6.80;;;17.90;35.60;;;;;;5053409;28;20506;-84
2022/03/11 01:42:03;;;;;;;10.40;6.80;;;17.90;35.60;;;;;;5054510;28;20430;-84
2022/03/11 01:44:31;;;;;;;9.80;7.57;;;17.80;35.60;;;;;;5054924;28;20478;-83
2022/03/11 01:46:59;;;;;;;8.17;6.80;;;17.90;35.70;;;;;;5053869;28;20457;-83
2022/03/11 01:49:28;;;;;;;8.30;6.70;;;17.80;35.60;;;;;;5055048;28;20497;-83
2022/03/11 01:51:56;;;;;;;8.63;6.80;;;17.80;35.80;;;;;;5055867;28;20423;-83
2022/03/11 01:54:24;;;;;;;7.80;6.23;;;17.70;35.80;;;;;;5054943;28;20463;-84
2022/03/11 01:56:52;;;;;;;9.47;7.03;;;17.70;35.80;;;;;;5057334;28;20455;-84
2022/03/11 01:59:20;;;;;;;8.43;6.70;;;17.70;35.80;;;;;;5054860;28;20485;-83
2022/03/11 02:01:48;;;;;;;7.33;6.30;;;17.70;35.90;;;;;;5055483;28;20454;-84
2022/03/11 02:04:16;;;;;;;10.57;6.90;;;17.60;35.80;;;;;;5056835;28;20474;-84
2022/03/11 02:06:46;;;;;;;7.70;6.43;;;17.60;35.90;;;;;;5055707;28;20450;-84
2022/03/11 02:09:14;;;;;;;10.77;7.53;;;17.50;36.50;;;;;;5056228;28;20431;-84
2022/03/11 02:11:42;;;;;;;9.90;6.63;;;17.50;35.90;;;;;;5057413;28;20504;-85
2022/03/11 02:14:10;;;;;;;9.80;7.40;;;17.50;36.00;;;;;;5057891;28;20471;-85
2022/03/11 02:16:40;;;;;;;9.03;6.63;;;17.50;36.00;;;;;;5058488;28;20861;-85
2022/03/11 02:19:09;;;;;;;8.63;7.00;;;17.50;36.10;;;;;;5059076;28;20454;-85
2022/03/11 02:21:41;;;;;;;10.43;7.00;;;17.50;36.20;;;;;;5060137;28;20450;-85
2022/03/11 02:24:11;;;;;;;8.97;6.90;;;17.40;36.10;;;;;;5060512;28;20474;-84
2022/03/11 02:26:39;;;;;;;8.40;6.50;;;17.40;36.20;;;;;;5058637;28;20950;-85
2022/03/11 02:29:07;;;;;;;9.60;6.63;;;17.40;36.30;;;;;;5055965;28;20497;-84
2022/03/11 02:31:35;;;;;;;10.60;7.20;;;17.30;36.20;;;;;;5055926;28;20496;-84
2022/03/11 02:34:03;;;;;;;8.93;7.20;;;17.20;36.10;;;;;;5057299;28;20992;-84
2022/03/11 02:36:31;;;;;;;8.57;6.87;;;17.20;36.30;;;;;;5056943;28;20492;-85
2022/03/11 02:38:59;;;;;;;7.80;6.73;;;17.20;36.20;;;;;;5057008;28;20434;-84
2022/03/11 02:41:29;;;;;;;7.70;6.30;;;17.20;36.30;;;;;;5056582;28;20431;-84
2022/03/11 02:43:57;;;;;;;7.80;6.33;;;17.10;36.20;;;;;;5056980;28;20458;-84
2022/03/11 02:46:24;;;;;;;9.90;7.50;;;17.10;36.30;;;;;;5057311;28;20474;-85
2022/03/11 02:48:53;;;;;;;7.53;6.30;;;17.10;36.30;;;;;;5058091;28;20485;-85
2022/03/11 02:51:20;;;;;;;7.70;6.60;;;17.10;36.40;;;;;;5058185;28;20498;-85
2022/03/11 02:53:48;;;;;;;10.47;7.47;;;17.00;36.30;;;;;;5059337;28;20455;-85
2022/03/11 02:56:16;;;;;;;9.30;7.00;;;17.00;36.40;;;;;;5059517;28;20431;-85
2022/03/11 02:58:46;;;;;;;7.80;6.90;;;17.00;36.40;;;;;;5059150;28;20477;-85
2022/03/11 03:01:13;;;;;;;9.37;7.00;;;17.00;36.40;;;;;;5057685;28;20454;-86
2022/03/11 03:03:42;;;;;;;10.30;7.53;;;16.90;36.30;;;;;;5049722;28;20478;-85
2022/03/11 03:06:10;;;;;;;8.20;6.67;;;16.90;36.30;;;;;;5060089;28;20470;-84
2022/03/11 03:08:37;;;;;;;8.47;6.87;;;16.90;36.30;;;;;;5062585;28;20442;-85
2022/03/11 03:11:05;;;;;;;9.63;6.60;;;16.80;36.40;;;;;;5061889;28;20430;-85
2022/03/11 03:13:34;;;;;;;7.87;6.50;;;16.80;36.50;;;;;;5062200;28;20459;-84
2022/03/11 03:16:03;;;;;;;10.43;6.90;;;16.80;36.60;;;;;;5062691;28;20469;-84
2022/03/11 03:18:31;;;;;;;9.20;6.70;;;16.80;36.60;;;;;;5060895;28;20475;-84
2022/03/11 03:20:59;;;;;;;9.53;6.97;;;16.80;36.50;;;;;;5062315;28;20922;-85
2022/03/11 03:23:27;;;;;;;8.53;6.90;;;16.70;36.50;;;;;;5062602;28;20454;-84
2022/03/11 03:25:55;;;;;;;9.10;6.77;;;16.60;36.60;;;;;;5063430;28;20474;-84
2022/03/11 03:28:23;;;;;;;11.60;6.70;;;16.70;36.70;;;;;;5063978;28;20435;-84
2022/03/11 03:30:51;;;;;;;8.97;6.20;;;16.60;36.60;;;;;;5064582;28;20449;-84
2022/03/11 03:33:20;;;;;;;8.80;6.93;;;16.60;36.70;;;;;;5062797;28;20611;-85
2022/03/11 03:35:48;;;;;;;8.03;6.17;;;16.60;36.70;;;;;;5061883;28;20430;-85
2022/03/11 03:38:16;;;;;;;9.30;7.00;;;16.50;36.60;;;;;;5061643;28;20435;-85
2022/03/11 03:40:44;;;;;;;8.40;7.07;;;16.50;36.60;;;;;;5061865;28;20443;-85
2022/03/11 03:43:12;;;;;;;10.13;6.83;;;16.50;36.60;;;;;;5062334;28;20485;-85
2022/03/11 03:45:40;;;;;;;8.00;6.70;;;16.40;36.60;;;;;;5062956;28;20497;-85
2022/03/11 03:48:09;;;;;;;8.97;6.53;;;16.40;36.80;;;;;;5062373;28;20566;-84
2022/03/11 03:50:39;;;;;;;8.53;6.50;;;16.40;36.80;;;;;;5059984;28;20500;-84
2022/03/11 03:53:07;;;;;;;8.90;6.90;;;16.40;36.80;;;;;;5060571;28;20503;-85
2022/03/11 03:55:35;;;;;;;8.30;6.60;;;16.30;37.30;;;;;;5060796;28;20430;-85
2022/03/11 03:58:03;;;;;;;11.03;7.47;;;16.30;36.90;;;;;;5060873;28;20447;-84
2022/03/11 04:00:31;;;;;;;9.10;7.13;;;16.20;36.80;;;;;;5064632;28;20449;-84
2022/03/11 04:02:59;;;;;;;9.57;7.10;;;16.20;37.00;;;;;;5063210;28;20459;-84
2022/03/11 04:05:27;;;;;;;10.20;6.97;;;16.20;36.90;;;;;;5062646;28;20459;-85
2022/03/11 04:07:59;;;;;;;10.60;7.27;;;16.20;36.80;;;;;;5061114;28;20485;-85
2022/03/11 04:10:27;;;;;;;9.90;7.20;;;16.20;36.90;;;;;;5061840;28;20434;-84
2022/03/11 04:12:57;;;;;;;11.30;7.40;;;16.10;36.90;;;;;;5062438;28;20478;-84
2022/03/11 04:15:24;;;;;;;9.20;6.93;;;16.10;37.00;;;;;;5062738;28;20488;-84
2022/03/11 04:17:52;;;;;;;7.97;6.67;;;16.10;36.90;;;;;;5062147;28;20474;-84
2022/03/11 04:20:20;;;;;;;10.70;7.57;;;16.00;36.80;;;;;;5062760;28;20442;-85
2022/03/11 04:22:50;;;;;;;7.40;6.20;;;16.00;36.90;;;;;;5062472;28;20481;-83
2022/03/11 04:25:19;;;;;;;9.30;7.27;;;16.00;36.70;;;;;;5062583;28;20512;-84
2022/03/11 04:27:47;;;;;;;7.47;6.40;;;15.90;36.80;;;;;;5063857;28;20423;-84
2022/03/11 04:30:18;;;;;;;9.67;6.80;;;15.90;36.90;;;;;;5063447;28;20457;-85
2022/03/11 04:32:46;;;;;;;8.77;6.80;;;15.90;36.90;;;;;;5062466;28;20478;-84
2022/03/11 04:35:14;;;;;;;8.73;7.13;;;15.90;36.80;;;;;;5061443;28;20446;-84
2022/03/11 04:37:42;;;;;;;7.10;6.40;;;15.90;36.90;;;;;;5042836;28;20428;-85
2022/03/11 04:40:11;;;;;;;8.20;6.80;;;15.80;36.70;;;;;;5042049;28;20527;-85
2022/03/11 04:42:40;;;;;;;9.47;6.43;;;15.90;36.70;;;;;;5040311;28;20467;-84
2022/03/11 04:45:10;;;;;;;8.67;7.07;;;15.80;36.70;;;;;;5041398;28;20428;-85
2022/03/11 04:47:38;;;;;;;9.03;7.00;;;15.80;36.80;;;;;;5036526;28;20452;-84
2022/03/11 04:50:06;;;;;;;10.17;7.87;;;15.80;36.70;;;;;;5043981;28;20482;-84
2022/03/11 04:52:34;;;;;;;9.30;7.00;;;15.80;36.60;;;;;;5059193;28;20435;-84
2022/03/11 04:55:02;;;;;;;10.23;6.93;;;15.80;36.70;;;;;;5060788;28;20476;-84
2022/03/11 04:57:30;;;;;;;7.53;6.47;;;15.70;36.80;;;;;;5059838;28;20485;-84
2022/03/11 05:00:00;;;;;;;9.27;6.37;;;15.60;36.60;;;;;;5059951;28;20426;-84
2022/03/11 05:02:28;;;;;;;7.87;7.07;;;15.60;36.80;;;;;;5059596;28;20520;-85
2022/03/11 05:04:56;;;;;;;8.23;6.33;;;15.70;36.80;;;;;;5060004;28;20447;-84
2022/03/11 05:07:24;;;;;;;7.73;6.43;;;15.70;37.20;;;;;;5059359;28;20473;-84
2022/03/11 05:09:52;;;;;;;10.97;6.60;;;15.60;36.60;;;;;;5059673;28;20457;-85
2022/03/11 05:12:20;;;;;;;8.07;6.70;;;15.60;36.60;;;;;;5059843;28;20465;-84
2022/03/11 05:14:50;;;;;;;7.93;6.50;;;15.60;36.70;;;;;;5059938;28;20466;-83
2022/03/11 05:17:19;;;;;;;8.07;6.60;;;15.50;36.60;;;;;;5059621;28;20459;-84
2022/03/11 05:19:47;;;;;;;9.00;6.90;;;15.50;36.80;;;;;;5059280;28;20473;-84
2022/03/11 05:22:16;;;;;;;8.30;6.13;;;15.50;36.90;;;;;;5057873;28;20466;-84
2022/03/11 05:24:44;;;;;;;9.37;7.40;;;15.40;36.70;;;;;;5059175;28;20463;-84
2022/03/11 05:27:12;;;;;;;7.60;5.67;;;15.40;37.00;;;;;;5060073;28;20474;-84
2022/03/11 05:29:40;;;;;;;9.07;7.10;;;15.40;37.00;;;;;;5060378;28;20466;-84
2022/03/11 05:32:09;;;;;;;14.17;6.97;;;15.40;36.90;;;;;;5061541;28;20853;-83
2022/03/11 05:34:39;;;;;;;9.07;7.10;;;15.30;36.80;;;;;;5061599;28;20536;-84
2022/03/11 05:37:07;;;;;;;8.90;6.80;;;15.40;36.90;;;;;;5060238;28;20441;-83
2022/03/11 05:39:36;;;;;;;9.70;7.20;;;15.30;36.70;;;;;;5058909;28;20520;-84
2022/03/11 05:42:04;;;;;;;7.90;6.57;;;15.30;36.90;;;;;;5059765;28;20427;-83
2022/03/11 05:44:32;;;;;;;9.23;6.60;;;15.30;36.90;;;;;;5060588;28;20485;-84
2022/03/11 05:47:00;;;;;;;9.50;7.30;;;15.30;36.90;;;;;;5059624;28;20490;-83
2022/03/11 05:49:28;;;;;;;7.50;6.30;;;15.30;36.90;;;;;;5060160;28;20734;-83
2022/03/11 05:51:57;;;;;;;9.70;6.70;;;15.30;36.80;;;;;;5060162;28;20411;-84
2022/03/11 05:54:25;;;;;;;8.80;6.70;;;15.30;36.90;;;;;;5059982;28;20498;-84
2022/03/11 05:56:54;;;;;;;8.10;6.47;;;15.30;36.70;;;;;;5060562;28;20427;-84
2022/03/11 05:59:23;;;;;;;9.50;6.93;;;15.30;37.00;;;;;;5060883;28;20506;-83
2022/03/11 06:01:51;;;;;;;9.87;6.93;;;15.20;36.80;;;;;;5060707;28;20450;-84
2022/03/11 06:04:19;;;;;;;8.00;6.90;;;15.10;36.90;;;;;;5055775;28;20502;-84
2022/03/11 06:06:47;;;;;;;9.37;6.50;;;15.10;37.00;;;;;;5060619;28;20528;-84
2022/03/11 06:09:16;;;;;;;7.90;6.30;;;15.10;37.00;;;;;;5060979;28;20500;-84
2022/03/11 06:11:44;;;;;;;8.83;6.70;;;15.10;37.00;;;;;;5059191;28;20446;-84
2022/03/11 06:14:12;;;;;;;8.13;6.53;;;15.10;37.00;;;;;;5060094;28;20451;-84
2022/03/11 06:16:40;;;;;;;7.00;6.10;;;15.10;36.90;;;;;;5060706;28;20435;-83
2022/03/11 06:19:08;;;;;;;7.27;6.30;;;15.10;36.70;;;;;;5060317;28;20486;-83
2022/03/11 06:21:36;;;;;;;8.13;6.80;;;15.10;37.00;;;;;;5060161;28;20442;-84
2022/03/11 06:24:05;;;;;;;9.63;7.00;;;15.00;36.80;;;;;;5060198;28;20446;-84
2022/03/11 06:26:34;;;;;;;7.27;6.20;;;15.00;36.90;;;;;;5060661;28;20470;-83
2022/03/11 06:29:02;;;;;;;8.43;6.30;;;15.00;36.90;;;;;;5059334;28;20500;-84
2022/03/11 06:31:30;;;;;;;7.77;6.70;;;15.00;37.00;;;;;;5059501;28;20481;-84
2022/03/11 06:33:59;;;;;;;9.60;6.67;;;15.00;36.90;;;;;;5059874;28;20470;-84
2022/03/11 06:36:28;;;;;;;6.93;6.10;;;15.00;36.90;;;;;;5059755;28;20442;-84
2022/03/11 06:38:56;;;;;;;7.90;6.10;;;15.10;37.00;;;;;;5060348;28;20506;-84
2022/03/11 06:41:25;;;;;;;11.40;6.70;;;15.20;36.60;;;;;;5066058;28;20447;-85
2022/03/11 06:43:59;;;;;;;11.87;6.70;;;15.20;36.60;;;;;;5064340;28;20481;-85
2022/03/11 06:46:27;;;;;;;9.23;6.97;;;15.40;36.40;;;;;;5065787;28;20553;-85
2022/03/11 06:48:55;;;;;;;9.40;6.67;;;15.40;36.40;;;;;;5065830;28;20470;-84
2022/03/11 06:51:24;;;;;;;8.83;7.00;;;15.40;36.30;;;;;;5065565;28;20439;-84
2022/03/11 06:53:52;;;;;;;8.30;6.80;;;15.40;36.20;;;;;;5065365;28;20466;-85
2022/03/11 06:56:19;;;;;;;7.60;6.47;;;15.50;36.30;;;;;;5065253;28;20448;-85
2022/03/11 06:58:47;;;;;;;8.60;6.30;;;15.50;36.20;;;;;;5065565;28;20434;-85
2022/03/11 07:01:18;;;;;;;8.80;6.87;;;15.60;36.00;;;;;;5064321;28;20484;-84
2022/03/11 07:03:46;;;;;;;7.33;5.80;;;15.60;35.90;;;;;;5064973;28;20501;-84
2022/03/11 07:06:14;;;;;;;8.43;6.53;;;15.60;35.80;;;;;;5067247;28;20449;-84
2022/03/11 07:08:44;;;;;;;8.73;6.63;;;15.70;35.80;;;;;;5063739;28;20466;-84
2022/03/11 07:11:12;;;;;;;8.73;6.27;;;15.70;35.70;;;;;;5064425;28;20431;-84
2022/03/11 07:13:41;;;;;;;17.33;7.10;;;15.70;35.80;;;;;;5064303;28;20521;-85
2022/03/11 07:16:12;;;;;;;12.60;7.07;;;15.70;35.70;;;;;;5062970;28;20451;-85
2022/03/11 07:18:41;;;;;;;9.40;6.73;;;15.70;35.50;;;;;;5056576;28;20497;-84
2022/03/11 07:21:10;;;;;;;7.83;6.80;;;15.80;35.50;;;;;;5066973;28;20466;-84
2022/03/11 07:23:39;;;;;;;7.43;6.17;;;15.70;35.60;;;;;;5066157;28;20530;-84
2022/03/11 07:26:07;;;;;;;12.57;7.37;;;15.70;35.60;;;;;;5060469;28;20435;-84
2022/03/11 07:28:35;;;;;;;8.77;6.63;;;15.70;35.70;;;;;;5058025;28;20470;-84
2022/03/11 07:31:03;;;;;;;8.10;6.20;;;15.70;35.40;;;;;;5059822;28;20465;-84
2022/03/11 07:33:31;;;;;;;7.20;6.47;;;15.70;35.40;;;;;;5063777;28;20538;-84
2022/03/11 07:36:00;;;;;;;10.47;7.23;;;15.70;35.40;;;;;;5065408;28;20468;-85
2022/03/11 07:38:30;;;;;;;13.13;6.97;;;15.80;35.20;;;;;;5064523;28;20426;-84
2022/03/11 07:41:00;;;;;;;10.60;6.70;;;15.90;35.20;;;;;;5064106;28;20446;-85
2022/03/11 07:43:28;;;;;;;7.63;6.70;;;15.80;35.00;;;;;;5064688;28;20470;-85
2022/03/11 07:45:56;;;;;;;9.77;7.13;;;16.00;34.90;;;;;;5064019;28;20450;-85
2022/03/11 07:48:23;;;;;;;9.60;6.23;;;15.90;34.70;;;;;;5063896;28;20478;-84
2022/03/11 07:50:51;;;;;;;9.10;6.67;;;15.80;34.80;;;;;;5062597;28;20510;-85
2022/03/11 07:53:21;;;;;;;7.20;6.33;;;15.90;34.80;;;;;;5063689;28;20485;-84
2022/03/11 07:55:49;;;;;;;8.17;6.27;;;15.90;34.60;;;;;;5063345;28;20488;-85
2022/03/11 07:58:21;;;;;;;8.30;6.10;;;15.90;34.70;;;;;;5062815;28;20447;-85
2022/03/11 08:00:49;;;;;;;9.83;6.90;;;15.90;34.70;;;;;;5062676;28;20431;-84
2022/03/11 08:03:21;;;;;;;9.17;6.87;;;16.00;34.70;;;;;;5061771;28;20467;-84
2022/03/11 08:05:49;;;;;;;7.87;6.70;;;16.10;34.50;;;;;;5061582;28;20521;-83
2022/03/11 08:08:17;;;;;;;9.10;6.50;;;16.00;34.30;;;;;;5060134;28;20490;-85
2022/03/11 08:10:47;;;;;;;8.93;6.63;;;16.10;34.50;;;;;;5062598;28;20442;-84
2022/03/11 08:13:33;;;;;;;7.63;6.37;;;16.30;34.20;;;;;;5062668;28;20458;-84
2022/03/11 08:16:01;;;;;;;9.93;6.90;;;16.30;34.20;;;;;;5063654;28;20465;-85
2022/03/11 08:18:30;;;;;;;9.90;7.40;;;16.40;34.10;;;;;;5059403;28;20533;-84
2022/03/11 08:20:58;;;;;;;8.97;6.50;;;16.40;34.00;;;;;;5066710;28;20504;-83
2022/03/11 08:23:26;;;;;;;9.40;6.77;;;16.40;34.20;;;;;;5067743;28;20481;-83
2022/03/11 08:25:55;;;;;;;7.50;6.20;;;16.50;34.60;;;;;;5053717;28;20462;-83
2022/03/11 08:28:24;;;;;;;8.63;7.10;;;16.50;34.90;;;;;;5054530;28;20482;-83
2022/03/11 08:30:51;;;;;;;9.13;7.00;;;16.70;34.80;;;;;;5054546;28;20481;-83
2022/03/11 08:33:22;;;;;;;9.03;6.87;;;17.00;34.60;;;;;;5054039;28;20458;-83
2022/03/11 08:36:10;;;;;;;7.67;6.80;;;17.00;34.80;;;;;;5054042;28;20492;-83
2022/03/11 08:38:39;;;;;;;7.90;6.00;;;17.40;34.60;;;;;;5054213;28;20438;-84
2022/03/11 08:41:08;;;;;;;7.43;6.60;;;17.60;34.50;;;;;;5046625;28;20485;-84
2022/03/11 08:43:38;;;;;;;8.90;6.40;;;17.80;34.50;;;;;;5053431;28;20524;-83
2022/03/11 08:46:09;;;;;;;8.97;6.50;;;17.90;34.20;;;;;;5053980;28;20450;-83
2022/03/11 08:48:37;;;;;;;9.40;6.40;;;18.10;34.30;;;;;;5054085;28;20577;-83
2022/03/11 08:51:06;;;;;;;9.23;6.23;;;18.30;34.10;;;;;;5054273;28;20504;-83
2022/03/11 08:53:36;;;;;;;7.60;6.23;;;18.50;34.20;;;;;;5054409;28;20924;-83
2022/03/11 08:56:04;;;;;;;6.90;6.00;;;18.70;34.40;;;;;;5054822;28;20447;-82
2022/03/11 08:58:34;;;;;;;6.87;6.10;;;19.00;34.20;;;;;;5053958;28;20455;-82
2022/03/11 09:01:02;;;;;;;6.50;5.90;;;19.20;34.20;;;;;;5055915;28;20443;-82
2022/03/11 09:03:30;;;;;;;6.40;5.73;;;19.40;34.20;;;;;;5054139;28;20542;-82
2022/03/11 09:05:58;;;;;;;6.67;5.97;;;19.50;34.10;;;;;;5054591;28;21033;-82
2022/03/11 09:08:26;;;;;;;6.73;5.87;;;19.70;34.00;;;;;;5054438;28;20470;-83
2022/03/11 09:10:54;;;;;;;8.30;5.90;;;20.00;33.80;;;;;;5054823;28;20439;-83
2022/03/11 09:13:22;;;;;;;6.73;6.10;;;20.10;33.70;;;;;;5055593;28;20474;-83
2022/03/11 09:15:52;;;;;;;6.83;6.13;;;20.20;33.50;;;;;;5054300;28;20473;-83
2022/03/11 09:18:20;;;;;;;6.47;5.87;;;20.50;33.30;;;;;;5055056;28;20454;-83
2022/03/11 09:20:48;;;;;;;5.50;4.93;;;20.70;33.20;;;;;;5055615;28;20443;-83
2022/03/11 09:23:16;;;;;;;6.50;5.90;;;20.90;33.10;;;;;;5056405;28;20470;-83
2022/03/11 09:25:44;;;;;;;6.63;5.33;;;21.00;33.00;;;;;;5057374;28;20450;-83
2022/03/11 09:28:12;;;;;;;6.60;5.90;;;21.20;33.10;;;;;;5056699;28;20539;-83
2022/03/11 09:30:39;;;;;;;6.40;5.80;;;21.40;33.10;;;;;;5055898;28;20454;-84
2022/03/11 09:33:09;;;;;;;7.30;6.20;;;21.70;33.00;;;;;;5056371;28;20467;-83
2022/03/11 09:35:37;;;;;;;6.53;5.83;;;21.90;32.90;;;;;;5056524;28;20446;-83
2022/03/11 09:38:05;;;;;;;6.97;6.07;;;22.20;32.90;;;;;;5057357;28;20438;-83
2022/03/11 09:40:33;;;;;;;9.03;5.63;;;22.40;32.60;;;;;;5057585;28;20504;-83
2022/03/11 09:43:01;;;;;;;6.17;5.50;;;22.70;32.50;;;;;;5057118;28;20524;-83
2022/03/11 09:45:29;;;;;;;6.60;5.77;;;22.80;32.30;;;;;;5057024;28;20421;-84
2022/03/11 09:47:57;;;;;;;6.20;5.60;;;23.00;32.20;;;;;;5054999;28;20543;-83
2022/03/11 09:50:30;;;;;;;6.10;5.50;;;23.20;32.20;;;;;;5058292;28;20498;-83
2022/03/11 09:52:57;;;;;;;6.97;5.83;;;23.40;32.00;;;;;;5057978;28;20467;-84
2022/03/11 09:55:26;;;;;;;5.87;5.27;;;23.60;31.60;;;;;;5058452;28;20434;-83
2022/03/11 09:57:55;;;;;;;6.23;5.63;;;23.80;31.40;;;;;;5057739;28;20430;-84
2022/03/11 10:00:23;;;;;;;6.87;6.17;;;23.90;31.10;;;;;;5057857;28;20430;-83
2022/03/11 10:02:56;;;;;;;5.60;5.10;;;24.10;30.70;;;;;;5058082;28;20506;-84
2022/03/11 10:05:24;;;;;;;6.10;5.40;;;24.30;30.40;;;;;;5058579;28;20421;-84
2022/03/11 10:08:01;;;;;;;6.07;5.47;;;24.50;30.20;;;;;;5059219;28;20529;-84
2022/03/11 10:10:29;;;;;;;6.37;5.77;;;24.70;30.10;;;;;;5059428;28;20405;-83
2022/03/11 10:13:08;;;;;;;6.93;5.80;;;24.90;30.00;;;;;;5059605;28;20463;-83
2022/03/11 10:15:37;;;;;;;6.47;5.77;;;25.00;29.90;;;;;;5059521;28;20443;-83
2022/03/11 10:18:08;;;;;;;6.07;5.50;;;25.30;29.60;;;;;;5060559;28;20455;-83
2022/03/11 10:20:36;;;;;;;7.00;5.47;;;25.50;29.30;;;;;;5058585;28;20672;-80
2022/03/11 10:23:09;;;;;;;7.00;6.00;;;25.60;29.00;;;;;;5057356;28;20429;-83
2022/03/11 10:25:38;;;;;;;9.93;5.40;;;25.70;28.90;;;;;;5056193;28;20426;-82
2022/03/11 10:28:08;;;;;;;9.03;5.73;;;25.80;28.60;;;;;;5057657;28;20450;-79
2022/03/11 10:30:38;;;;;;;7.27;5.63;;;26.10;28.30;;;;;;5058339;28;20416;-79
2022/03/11 10:33:08;;;;;;;6.60;5.60;;;26.20;28.00;;;;;;5057102;28;20495;-79
2022/03/11 10:35:37;;;;;;;6.07;5.43;;;26.40;27.90;;;;;;5056535;28;20471;-79
2022/03/11 10:38:07;;;;;;;7.57;5.60;;;26.50;27.80;;;;;;5057768;28;20409;-79
2022/03/11 10:40:41;;;;;;;5.67;5.17;;;26.70;27.70;;;;;;5057048;28;20453;-80
2022/03/11 10:43:11;;;;;;;8.47;5.50;;;26.90;27.80;;;;;;5057758;28;20448;-80
2022/03/11 10:46:06;;;;;;;5.37;4.87;;;27.00;27.40;;;;;;5058571;28;20425;-80
2022/03/11 10:48:43;;;;;;;7.70;5.27;;;27.20;27.30;;;;;;5057660;28;20680;-81
2022/03/11 10:51:12;;;;;;;5.80;5.20;;;27.40;27.20;;;;;;5056900;28;20511;-81
2022/03/11 10:53:40;;;;;;;6.63;5.30;;;27.60;27.10;;;;;;5049162;28;20441;-81
2022/03/11 10:56:10;;;;;;;9.80;5.50;;;27.70;27.00;;;;;;5056918;28;20479;-81
2022/03/11 10:58:38;;;;;;;9.87;6.20;;;27.80;26.80;;;;;;5056521;28;20424;-80
2022/03/11 11:01:06;;;;;;;8.03;5.40;;;28.00;26.60;;;;;;5057140;28;20467;-80
2022/03/11 11:03:35;;;;;;;6.17;5.20;;;28.20;26.40;;;;;;5056221;28;20455;-81
2022/03/11 11:06:03;;;;;;;6.60;5.80;;;28.40;26.20;;;;;;5056483;28;20401;-81
2022/03/11 11:08:31;;;;;;;5.50;5.00;;;28.50;26.00;;;;;;5055064;28;20429;-80
2022/03/11 11:10:59;;;;;;;7.17;5.63;;;28.70;25.90;;;;;;5057171;28;20486;-81
2022/03/11 11:13:28;;;;;;;5.27;4.80;;;28.80;25.80;;;;;;5054669;28;20505;-80
2022/03/11 11:15:56;;;;;;;6.13;5.53;;;29.00;25.60;;;;;;5055433;28;20504;-79
2022/03/11 11:18:24;;;;;;;7.07;4.80;;;29.20;25.60;;;;;;5055475;28;20425;-81
2022/03/11 11:20:53;;;;;;;5.07;4.67;;;29.50;25.60;;;;;;5055800;28;20409;-80
2022/03/11 11:23:21;;;;;;;11.67;5.77;;;29.70;25.30;;;;;;5054527;28;20516;-81
2022/03/11 11:25:50;;;;;;;5.77;5.27;;;30.30;25.60;;;;;;5055572;28;20479;-80
2022/03/11 11:28:19;;;;;;;5.33;4.87;;;30.90;24.70;;;;;;5060325;28;20557;-80
2022/03/11 11:30:48;;;;;;;6.27;5.03;;;31.70;24.10;;;;;;5059195;28;20524;-82
2022/03/11 11:33:16;;;;;;;6.20;4.53;;;32.40;23.60;;;;;;5059453;28;20527;-82
2022/03/11 11:35:44;;;;;;;4.20;3.90;;;33.10;23.10;;;;;;5060040;28;20435;-82
2022/03/11 11:38:37;;;;;;;5.40;4.90;;;33.90;22.60;;;;;;5059339;28;20406;-81
2022/03/11 11:41:23;;;;;;;4.30;4.00;;;34.60;22.20;;;;;;5038760;28;20477;-81
2022/03/11 11:43:55;;;;;;;4.10;3.90;;;35.30;21.70;;;;;;5057730;28;20568;-82
2022/03/11 11:46:24;;;;;;;4.83;4.43;;;36.00;21.00;;;;;;5059241;28;20914;-81
2022/03/11 11:48:56;;;;;;;4.17;3.87;;;36.40;20.70;;;;;;5058144;28;20510;-81
2022/03/11 11:51:45;;;;;;;4.10;3.90;;;36.90;20.20;;;;;;5059903;28;20462;-82
2022/03/11 11:54:13;;;;;;;4.20;3.90;;;37.50;19.80;;;;;;5059015;28;20454;-81
2022/03/11 11:56:43;;;;;;;3.77;3.57;;;38.10;19.30;;;;;;5061356;28;20414;-82
2022/03/11 11:59:12;;;;;;;4.27;3.87;;;38.50;19.30;;;;;;5060332;28;20442;-82
2022/03/11 12:01:46;;;;;;;3.40;3.30;;;39.20;18.90;;;;;;5062166;28;20434;-82
2022/03/11 12:04:23;;;;;;;3.13;2.97;;;39.40;18.70;;;;;;5059261;28;20469;-81
2022/03/11 12:06:59;;;;;;;7.80;3.57;;;40.40;18.20;;;;;;5059603;28;20429;-82
2022/03/11 12:09:47;;;;;;;3.43;3.23;;;40.60;17.90;;;;;;5060868;28;20465;-82
2022/03/11 12:12:55;;;;;;;3.40;3.30;;;41.40;17.60;;;;;;5059779;28;20427;-82
2022/03/11 12:15:23;;;;;;;3.30;2.97;;;42.90;16.60;;;;;;5052322;28;20465;-81
2022/03/11 12:17:56;;;;;;;2.67;2.57;;;43.70;15.90;;;;;;5058106;28;20442;-81
2022/03/11 12:20:46;;;;;;;2.77;2.67;;;44.30;15.50;;;;;;5059203;28;20422;-82
2022/03/11 12:23:19;;;;;;;3.00;2.67;;;44.80;15.40;;;;;;5058226;28;20538;-82
2022/03/11 12:25:48;;;;;;;2.78;2.67;;;45.20;15.00;;;;;;5058804;28;20444;-82
2022/03/11 12:28:17;;;;;;;2.90;2.80;;;45.40;14.80;;;;;;5059047;28;20500;-81
2022/03/11 12:30:55;;;;;;;2.65;2.45;;;45.50;14.70;;;;;;5057455;28;20290;-82
2022/03/11 12:33:26;;;;;;;2.33;2.22;;;45.60;14.90;;;;;;5059914;28;20232;-82
2022/03/11 12:35:55;;;;;;;2.60;2.50;;;45.90;14.80;;;;;;5056164;28;20469;-81
2022/03/11 12:38:24;;;;;;;2.20;2.10;;;46.00;14.70;;;;;;5060590;28;20212;-83
2022/03/11 12:40:52;;;;;;;2.35;2.25;;;46.00;14.60;;;;;;5054480;28;20201;-82
2022/03/11 12:43:21;;;;;;;3.25;2.20;;;46.10;14.50;;;;;;5053766;28;20232;-85
2022/03/11 12:45:50;;;;;;;2.38;2.28;;;46.10;14.40;;;;;;5057372;28;20205;-83
2022/03/11 12:48:18;;;;;;;2.40;2.30;;;46.30;14.30;;;;;;5057659;28;20425;-79
2022/03/11 12:50:48;;;;;;;2.53;2.33;;;46.40;14.40;;;;;;5056303;28;20477;-84
2022/03/11 12:53:16;;;;;;;2.80;2.20;;;46.10;14.20;;;;;;5056353;28;20466;-83
2022/03/11 12:55:45;;;;;;;2.30;2.20;;;46.20;14.20;;;;;;5059216;28;20236;-83